sensor_id;sensor_type;location;lat;lon;timestamp;pressure;altitude;pressure_sealevel;temperature;humidity
76126;BME280;65174;48.138;21.002;2022-12-18T00:00:08;100628.22;;;-1.06;79.83
76126;BME280;65174;48.138;21.002;2022-12-18T00:03:16;100634.13;;;-1.10;81.54
76126;BME280;65174;48.138;21.002;2022-12-18T00:06:18;100642.56;;;-1.14;79.42
76126;BME280;65174;48.138;21.002;2022-12-18T00:09:21;100637.50;;;-1.13;80.00
76126;BME280;65174;48.138;21.002;2022-12-18T00:12:25;100645.09;;;-1.16;79.19
76126;BME280;65174;48.138;21.002;2022-12-18T00:15:27;100650.97;;;-1.17;79.40
76126;BME280;65174;48.138;21.002;2022-12-18T00:18:29;100653.50;;;-1.23;79.21
76126;BME280;65174;48.138;21.002;2022-12-18T00:21:31;100668.72;;;-1.20;79.43
76126;BME280;65174;48.138;21.002;2022-12-18T00:24:34;100674.59;;;-1.19;80.63
76126;BME280;65174;48.138;21.002;2022-12-18T00:27:36;100674.59;;;-1.19;79.86
76126;BME280;65174;48.138;21.002;2022-12-18T00:30:38;100684.75;;;-1.16;80.43
76126;BME280;65174;48.138;21.002;2022-12-18T00:33:42;100685.59;;;-1.16;80.64
76126;BME280;65174;48.138;21.002;2022-12-18T00:36:47;100692.34;;;-1.18;80.21
76126;BME280;65174;48.138;21.002;2022-12-18T00:39:49;100702.50;;;-1.10;80.75
76126;BME280;65174;48.138;21.002;2022-12-18T00:42:53;100702.53;;;-1.01;81.09
76126;BME280;65174;48.138;21.002;2022-12-18T00:45:57;100709.28;;;-0.97;81.17
76126;BME280;65174;48.138;21.002;2022-12-18T00:49:00;100716.03;;;-1.01;79.54
76126;BME280;65174;48.138;21.002;2022-12-18T00:52:02;100721.97;;;-0.93;79.63
76126;BME280;65174;48.138;21.002;2022-12-18T00:55:04;100725.31;;;-0.95;77.33
76126;BME280;65174;48.138;21.002;2022-12-18T00:58:08;100737.19;;;-0.88;79.53
76126;BME280;65174;48.138;21.002;2022-12-18T01:01:10;100730.44;;;-0.86;77.51
76126;BME280;65174;48.138;21.002;2022-12-18T01:04:13;100724.50;;;-0.91;75.80
76126;BME280;65174;48.138;21.002;2022-12-18T01:07:15;100739.69;;;-0.90;77.67
76126;BME280;65174;48.138;21.002;2022-12-18T01:10:18;100739.69;;;-0.84;76.64
76126;BME280;65174;48.138;21.002;2022-12-18T01:13:20;100750.72;;;-0.72;75.21
76126;BME280;65174;48.138;21.002;2022-12-18T01:16:24;100750.66;;;-0.94;75.61
76126;BME280;65174;48.138;21.002;2022-12-18T01:19:26;100744.75;;;-0.99;77.04
76126;BME280;65174;48.138;21.002;2022-12-18T01:22:29;100739.66;;;-0.96;77.05
76126;BME280;65174;48.138;21.002;2022-12-18T01:25:30;100745.59;;;-0.94;75.78
76126;BME280;65174;48.138;21.002;2022-12-18T01:28:33;100742.25;;;-0.87;76.22
76126;BME280;65174;48.138;21.002;2022-12-18T01:31:36;100751.56;;;-0.70;76.67
76126;BME280;65174;48.138;21.002;2022-12-18T01:34:38;100757.47;;;-0.67;75.27
76126;BME280;65174;48.138;21.002;2022-12-18T01:37:40;100756.66;;;-0.61;76.89
76126;BME280;65174;48.138;21.002;2022-12-18T01:40:42;100757.50;;;-0.53;74.70
76126;BME280;65174;48.138;21.002;2022-12-18T01:43:54;100771.03;;;-0.53;75.72
76126;BME280;65174;48.138;21.002;2022-12-18T01:46:58;100770.19;;;-0.55;78.24
76126;BME280;65174;48.138;21.002;2022-12-18T01:53:17;100776.09;;;-0.59;78.01
76126;BME280;65174;48.138;21.002;2022-12-18T01:56:20;100771.00;;;-0.66;77.54
76126;BME280;65174;48.138;21.002;2022-12-18T01:59:23;100770.16;;;-0.71;77.36
76126;BME280;65174;48.138;21.002;2022-12-18T02:02:26;100781.13;;;-0.75;76.53
76126;BME280;65174;48.138;21.002;2022-12-18T02:06:19;100786.13;;;-0.82;79.77
76126;BME280;65174;48.138;21.002;2022-12-18T02:09:24;100795.44;;;-0.85;78.43
76126;BME280;65174;48.138;21.002;2022-12-18T02:12:52;100790.38;;;-0.79;78.74
76126;BME280;65174;48.138;21.002;2022-12-18T02:16:07;100798.81;;;-0.77;75.14
76126;BME280;65174;48.138;21.002;2022-12-18T02:22:40;100808.97;;;-0.78;75.31
76126;BME280;65174;48.138;21.002;2022-12-18T02:29:31;100812.34;;;-0.78;74.32
76126;BME280;65174;48.138;21.002;2022-12-18T02:32:39;100816.56;;;-0.80;75.96
76126;BME280;65174;48.138;21.002;2022-12-18T02:35:43;100823.28;;;-0.85;77.33
76126;BME280;65174;48.138;21.002;2022-12-18T02:38:47;100829.19;;;-0.89;76.59
76126;BME280;65174;48.138;21.002;2022-12-18T02:41:51;100831.72;;;-0.89;77.69
76126;BME280;65174;48.138;21.002;2022-12-18T02:44:56;100832.59;;;-0.84;75.11
76126;BME280;65174;48.138;21.002;2022-12-18T02:48:22;100838.50;;;-0.81;76.07
76126;BME280;65174;48.138;21.002;2022-12-18T03:02:23;100865.38;;;-1.07;78.30
76126;BME280;65174;48.138;21.002;2022-12-18T03:07:01;100868.78;;;-1.08;77.94
76126;BME280;65174;48.138;21.002;2022-12-18T03:11:36;100874.59;;;-1.19;78.64
76126;BME280;65174;48.138;21.002;2022-12-18T03:16:17;100882.19;;;-1.22;77.97
76126;BME280;65174;48.138;21.002;2022-12-18T03:20:47;100873.66;;;-1.33;77.80
76126;BME280;65174;48.138;21.002;2022-12-18T03:25:22;100885.53;;;-1.23;77.33
76126;BME280;65174;48.138;21.002;2022-12-18T03:30:03;100890.59;;;-1.26;77.97
76126;BME280;65174;48.138;21.002;2022-12-18T03:34:37;100892.22;;;-1.36;79.53
76126;BME280;65174;48.138;21.002;2022-12-18T03:39:12;100895.56;;;-1.41;79.09
76126;BME280;65174;48.138;21.002;2022-12-18T03:48:07;100901.31;;;-1.62;81.32
76126;BME280;65174;48.138;21.002;2022-12-18T03:52:44;100910.41;;;-1.81;80.18
76126;BME280;65174;48.138;21.002;2022-12-18T03:57:01;100920.53;;;-1.81;80.20
76126;BME280;65174;48.138;21.002;2022-12-18T04:00:12;100926.44;;;-1.80;80.26
76126;BME280;65174;48.138;21.002;2022-12-18T04:03:16;100940.88;;;-1.70;79.20
76126;BME280;65174;48.138;21.002;2022-12-18T04:06:28;100940.88;;;-1.69;78.70
76126;BME280;65174;48.138;21.002;2022-12-18T04:09:32;100944.25;;;-1.68;79.95
76126;BME280;65174;48.138;21.002;2022-12-18T04:12:37;100953.56;;;-1.61;79.64
76126;BME280;65174;48.138;21.002;2022-12-18T04:15:39;100951.03;;;-1.61;78.68
76126;BME280;65174;48.138;21.002;2022-12-18T04:18:46;100955.31;;;-1.57;79.66
76126;BME280;65174;48.138;21.002;2022-12-18T04:21:55;100957.88;;;-1.52;80.96
76126;BME280;65174;48.138;21.002;2022-12-18T04:24:57;100965.50;;;-1.48;81.80
76126;BME280;65174;48.138;21.002;2022-12-18T04:28:06;100968.94;;;-1.43;80.79
76126;BME280;65174;48.138;21.002;2022-12-18T04:31:09;100974.88;;;-1.38;80.66
76126;BME280;65174;48.138;21.002;2022-12-18T04:34:31;100979.16;;;-1.31;81.84
76126;BME280;65174;48.138;21.002;2022-12-18T04:39:06;100980.97;;;-1.16;80.37
76126;BME280;65174;48.138;21.002;2022-12-18T04:43:51;100986.97;;;-1.02;78.89
76126;BME280;65174;48.138;21.002;2022-12-18T04:48:26;100979.44;;;-0.95;81.02
76126;BME280;65174;48.138;21.002;2022-12-18T04:53:02;100998.91;;;-0.89;82.68
76126;BME280;65174;48.138;21.002;2022-12-18T04:57:37;101002.31;;;-0.84;81.58
76126;BME280;65174;48.138;21.002;2022-12-18T05:02:13;101008.28;;;-0.74;81.66
76126;BME280;65174;48.138;21.002;2022-12-18T05:06:48;101023.44;;;-0.79;80.14
76126;BME280;65174;48.138;21.002;2022-12-18T05:10:18;101021.81;;;-0.72;79.85
76126;BME280;65174;48.138;21.002;2022-12-18T05:13:20;101017.59;;;-0.70;79.12
76126;BME280;65174;48.138;21.002;2022-12-18T05:16:21;101027.78;;;-0.64;78.53
76126;BME280;65174;48.138;21.002;2022-12-18T05:19:24;101042.94;;;-0.72;79.30
76126;BME280;65174;48.138;21.002;2022-12-18T05:22:25;101044.66;;;-0.65;80.37
76126;BME280;65174;48.138;21.002;2022-12-18T05:25:27;101039.63;;;-0.63;79.71
76126;BME280;65174;48.138;21.002;2022-12-18T05:28:31;101056.47;;;-0.71;81.11
76126;BME280;65174;48.138;21.002;2022-12-18T05:31:34;101048.81;;;-0.74;81.59
76126;BME280;65174;48.138;21.002;2022-12-18T05:34:40;101054.00;;;-0.61;82.45
76126;BME280;65174;48.138;21.002;2022-12-18T05:37:42;101060.72;;;-0.64;80.64
76126;BME280;65174;48.138;21.002;2022-12-18T05:40:44;101059.84;;;-0.65;81.16
76126;BME280;65174;48.138;21.002;2022-12-18T05:43:46;101067.25;;;-0.95;79.28
76126;BME280;65174;48.138;21.002;2022-12-18T05:46:48;101068.06;;;-0.98;78.71
76126;BME280;65174;48.138;21.002;2022-12-18T05:49:50;101068.00;;;-1.02;78.48
76126;BME280;65174;48.138;21.002;2022-12-18T05:52:52;101071.19;;;-1.26;80.73
76126;BME280;65174;48.138;21.002;2022-12-18T05:55:54;101086.34;;;-1.27;79.69
76126;BME280;65174;48.138;21.002;2022-12-18T05:59:01;101097.34;;;-1.27;82.05
76126;BME280;65174;48.138;21.002;2022-12-18T06:02:03;101099.97;;;-1.18;79.74
76126;BME280;65174;48.138;21.002;2022-12-18T06:05:05;101097.31;;;-1.28;79.68
76126;BME280;65174;48.138;21.002;2022-12-18T06:08:08;101108.94;;;-1.45;80.79
76126;BME280;65174;48.138;21.002;2022-12-18T06:11:11;101105.56;;;-1.46;81.92
76126;BME280;65174;48.138;21.002;2022-12-18T06:14:13;101105.50;;;-1.53;80.98
76126;BME280;65174;48.138;21.002;2022-12-18T06:17:15;101113.84;;;-1.61;81.75
76126;BME280;65174;48.138;21.002;2022-12-18T06:20:36;101107.78;;;-1.73;82.32
76126;BME280;65174;48.138;21.002;2022-12-18T06:25:12;101119.41;;;-1.87;82.88
76126;BME280;65174;48.138;21.002;2022-12-18T06:29:47;101124.41;;;-1.93;82.83
76126;BME280;65174;48.138;21.002;2022-12-18T06:34:23;101126.06;;;-1.94;82.18
76126;BME280;65174;48.138;21.002;2022-12-18T06:38:58;101132.03;;;-1.89;83.50
76126;BME280;65174;48.138;21.002;2022-12-18T06:43:34;101141.38;;;-1.85;81.75
76126;BME280;65174;48.138;21.002;2022-12-18T06:48:09;101150.66;;;-1.82;83.28
76126;BME280;65174;48.138;21.002;2022-12-18T06:52:45;101137.84;;;-1.97;81.95
76126;BME280;65174;48.138;21.002;2022-12-18T06:57:20;101166.59;;;-1.91;82.19
76126;BME280;65174;48.138;21.002;2022-12-18T07:01:55;101168.19;;;-1.97;81.77
76126;BME280;65174;48.138;21.002;2022-12-18T07:06:31;101185.66;;;-2.09;81.11
76126;BME280;65174;48.138;21.002;2022-12-18T07:11:06;101187.34;;;-2.11;79.45
76126;BME280;65174;48.138;21.002;2022-12-18T07:15:43;101197.25;;;-2.25;80.00
76126;BME280;65174;48.138;21.002;2022-12-18T07:20:17;101205.69;;;-2.24;80.14
76126;BME280;65174;48.138;21.002;2022-12-18T07:24:53;101212.28;;;-2.32;79.82
76126;BME280;65174;48.138;21.002;2022-12-18T08:05:03;101248.94;;;-2.06;79.70
76126;BME280;65174;48.138;21.002;2022-12-18T08:09:16;101194.28;;;-2.54;78.50
76126;BME280;65174;48.138;21.002;2022-12-18T08:17:22;101224.03;;;-2.36;78.61
76126;BME280;65174;48.138;21.002;2022-12-18T08:21:34;101231.59;;;-2.36;79.13
76126;BME280;65174;48.138;21.002;2022-12-18T08:29:40;101238.38;;;-2.35;78.39
76126;BME280;65174;48.138;21.002;2022-12-18T08:45:31;101290.59;;;-1.83;77.73
76126;BME280;65174;48.138;21.002;2022-12-18T09:52:50;101349.00;;;-1.70;76.14
76126;BME280;65174;48.138;21.002;2022-12-18T09:55:55;101357.75;;;-1.51;75.41
76126;BME280;65174;48.138;21.002;2022-12-18T09:58:59;101355.25;;;-1.46;74.41
76126;BME280;65174;48.138;21.002;2022-12-18T10:02:14;101365.09;;;-1.65;76.46
76126;BME280;65174;48.138;21.002;2022-12-18T10:05:22;101359.53;;;-1.42;78.37
76126;BME280;65174;48.138;21.002;2022-12-18T10:12:23;101354.28;;;-1.54;74.80
76126;BME280;65174;48.138;21.002;2022-12-18T10:15:36;101349.16;;;-1.59;74.86
76126;BME280;65174;48.138;21.002;2022-12-18T10:22:02;101348.41;;;-1.53;75.17
76126;BME280;65174;48.138;21.002;2022-12-18T10:26:02;101344.94;;;-1.60;75.08
76126;BME280;65174;48.138;21.002;2022-12-18T10:30:36;101350.09;;;-1.52;77.47
76126;BME280;65174;48.138;21.002;2022-12-18T10:35:21;101343.44;;;-1.49;75.40
76126;BME280;65174;48.138;21.002;2022-12-18T10:44:11;101355.41;;;-1.37;75.32
76126;BME280;65174;48.138;21.002;2022-12-18T10:53:03;101346.03;;;-1.43;75.89
76126;BME280;65174;48.138;21.002;2022-12-18T11:02:07;101357.66;;;-0.99;74.61
76126;BME280;65174;48.138;21.002;2022-12-18T11:05:33;101357.94;;;-0.76;74.68
76126;BME280;65174;48.138;21.002;2022-12-18T11:08:39;101355.06;;;-1.02;77.01
76126;BME280;65174;48.138;21.002;2022-12-18T11:11:48;101346.50;;;-1.11;78.02
76126;BME280;65174;48.138;21.002;2022-12-18T11:14:52;101346.50;;;-1.11;76.04
76126;BME280;65174;48.138;21.002;2022-12-18T11:17:54;101338.03;;;-1.12;77.14
76126;BME280;65174;48.138;21.002;2022-12-18T11:21:09;101336.47;;;-1.02;77.06
76126;BME280;65174;48.138;21.002;2022-12-18T11:24:28;101341.78;;;-0.84;74.36
76126;BME280;65174;48.138;21.002;2022-12-18T11:27:32;101341.19;;;-0.60;74.02
76126;BME280;65174;48.138;21.002;2022-12-18T11:30:36;101343.59;;;-0.74;75.31
76126;BME280;65174;48.138;21.002;2022-12-18T11:33:41;101346.28;;;-0.60;73.59
76126;BME280;65174;48.138;21.002;2022-12-18T11:37:24;101345.56;;;-0.49;74.75
76126;BME280;65174;48.138;21.002;2022-12-18T11:42:25;101338.53;;;-0.74;75.36
76126;BME280;65174;48.138;21.002;2022-12-18T11:51:38;101335.25;;;-0.62;73.50
76126;BME280;65174;48.138;21.002;2022-12-18T12:00:59;101334.63;;;-0.46;73.15
76126;BME280;65174;48.138;21.002;2022-12-18T12:09:57;101328.47;;;-0.66;76.71
76126;BME280;65174;48.138;21.002;2022-12-18T12:14:34;101329.94;;;-0.87;75.68
76126;BME280;65174;48.138;21.002;2022-12-18T12:19:28;101332.59;;;-0.76;75.06
76126;BME280;65174;48.138;21.002;2022-12-18T12:23:53;101331.59;;;-0.90;75.92
76126;BME280;65174;48.138;21.002;2022-12-18T12:36:47;101329.94;;;-0.84;76.59
76126;BME280;65174;48.138;21.002;2022-12-18T12:41:20;101321.19;;;-1.08;76.63
76126;BME280;65174;48.138;21.002;2022-12-18T12:46:09;101336.94;;;-0.66;74.51
76126;BME280;65174;48.138;21.002;2022-12-18T12:50:43;101345.25;;;-0.76;78.24
76126;BME280;65174;48.138;21.002;2022-12-18T12:55:26;101339.22;;;-0.86;76.65
76126;BME280;65174;48.138;21.002;2022-12-18T13:04:08;101352.81;;;-0.81;77.35
76126;BME280;65174;48.138;21.002;2022-12-18T13:08:55;101346.75;;;-0.92;78.66
76126;BME280;65174;48.138;21.002;2022-12-18T13:23:34;101382.94;;;-1.00;75.79
76126;BME280;65174;48.138;21.002;2022-12-18T13:26:38;101382.13;;;-0.96;76.86
76126;BME280;65174;48.138;21.002;2022-12-18T13:29:45;101398.03;;;-1.08;76.27
76126;BME280;65174;48.138;21.002;2022-12-18T13:32:48;101398.97;;;-1.01;76.14
76126;BME280;65174;48.138;21.002;2022-12-18T13:36:25;101402.84;;;-1.26;77.04
76126;BME280;65174;48.138;21.002;2022-12-18T13:39:32;101415.66;;;-1.15;75.93
76126;BME280;65174;48.138;21.002;2022-12-18T13:42:39;101418.22;;;-1.11;77.58
76126;BME280;65174;48.138;21.002;2022-12-18T13:46:27;101418.28;;;-1.08;77.32
76126;BME280;65174;48.138;21.002;2022-12-18T13:49:39;101416.72;;;-1.00;76.58
76126;BME280;65174;48.138;21.002;2022-12-18T13:52:43;101438.50;;;-1.11;78.08
76126;BME280;65174;48.138;21.002;2022-12-18T13:55:45;101440.19;;;-1.11;78.89
76126;BME280;65174;48.138;21.002;2022-12-18T13:59:32;101430.94;;;-1.09;80.63
76126;BME280;65174;48.138;21.002;2022-12-18T14:02:27;101441.25;;;-0.96;77.23
76126;BME280;65174;48.138;21.002;2022-12-18T14:05:32;101447.03;;;-1.06;78.82
76126;BME280;65174;48.138;21.002;2022-12-18T14:08:38;101451.84;;;-1.21;78.99
76126;BME280;65174;48.138;21.002;2022-12-18T14:11:46;101451.94;;;-1.16;77.53
76126;BME280;65174;48.138;21.002;2022-12-18T14:14:51;101446.41;;;-1.45;78.72
76126;BME280;65174;48.138;21.002;2022-12-18T14:21:40;101461.97;;;-1.21;77.57
76126;BME280;65174;48.138;21.002;2022-12-18T14:24:42;101457.69;;;-1.25;79.94
76126;BME280;65174;48.138;21.002;2022-12-18T14:28:31;101457.63;;;-1.29;79.24
76126;BME280;65174;48.138;21.002;2022-12-18T14:31:17;101458.00;;;-1.57;79.15
76126;BME280;65174;48.138;21.002;2022-12-18T14:34:26;101458.09;;;-1.53;81.29
76126;BME280;65174;48.138;21.002;2022-12-18T14:37:28;101460.66;;;-1.50;79.47
76126;BME280;65174;48.138;21.002;2022-12-18T14:40:30;101464.16;;;-1.43;79.29
76126;BME280;65174;48.138;21.002;2022-12-18T14:43:34;101463.34;;;-1.41;79.17
76126;BME280;65174;48.138;21.002;2022-12-18T14:46:38;101468.84;;;-1.15;78.56
76126;BME280;65174;48.138;21.002;2022-12-18T14:49:42;101465.56;;;-1.08;78.21
76126;BME280;65174;48.138;21.002;2022-12-18T14:52:44;101470.25;;;-1.31;79.41
76126;BME280;65174;48.138;21.002;2022-12-18T14:55:47;101470.59;;;-1.11;78.47
76126;BME280;65174;48.138;21.002;2022-12-18T15:05:27;101476.31;;;-1.21;78.09
76126;BME280;65174;48.138;21.002;2022-12-18T15:08:36;101480.66;;;-1.16;78.17
76126;BME280;65174;48.138;21.002;2022-12-18T15:14:43;101485.56;;;-1.23;79.43
76126;BME280;65174;48.138;21.002;2022-12-18T15:17:45;101484.09;;;-1.62;79.13
76126;BME280;65174;48.138;21.002;2022-12-18T15:20:52;101487.44;;;-1.61;79.33
76126;BME280;65174;48.138;21.002;2022-12-18T15:23:54;101504.06;;;-1.77;80.08
76126;BME280;65174;48.138;21.002;2022-12-18T15:26:58;101500.94;;;-1.64;79.31
76126;BME280;65174;48.138;21.002;2022-12-18T15:30:01;101503.41;;;-1.65;79.33
76126;BME280;65174;48.138;21.002;2022-12-18T15:33:25;101500.72;;;-1.74;79.19
76126;BME280;65174;48.138;21.002;2022-12-18T15:36:27;101504.19;;;-1.69;80.75
76126;BME280;65174;48.138;21.002;2022-12-18T15:39:30;101495.78;;;-1.67;79.45
76126;BME280;65174;48.138;21.002;2022-12-18T15:42:32;101504.94;;;-1.73;81.32
76126;BME280;65174;48.138;21.002;2022-12-18T15:45:52;101494.72;;;-1.79;78.72
76126;BME280;65174;48.138;21.002;2022-12-18T15:48:56;101503.81;;;-1.89;78.76
76126;BME280;65174;48.138;21.002;2022-12-18T15:52:03;101498.97;;;-1.78;79.06
76126;BME280;65174;48.138;21.002;2022-12-18T15:55:12;101492.56;;;-2.04;79.11
76126;BME280;65174;48.138;21.002;2022-12-18T15:58:33;101507.66;;;-2.07;79.22
76126;BME280;65174;48.138;21.002;2022-12-18T16:01:36;101510.94;;;-2.11;78.89
76126;BME280;65174;48.138;21.002;2022-12-18T16:04:44;101515.22;;;-2.07;79.63
76126;BME280;65174;48.138;21.002;2022-12-18T16:07:47;101524.66;;;-2.00;80.37
76126;BME280;65174;48.138;21.002;2022-12-18T16:10:49;101531.59;;;-1.90;80.05
76126;BME280;65174;48.138;21.002;2022-12-18T16:13:51;101531.72;;;-1.84;79.34
76126;BME280;65174;48.138;21.002;2022-12-18T16:17:00;101526.50;;;-1.93;79.51
76126;BME280;65174;48.138;21.002;2022-12-18T16:20:03;101546.19;;;-1.79;77.83
76126;BME280;65174;48.138;21.002;2022-12-18T16:23:06;101547.84;;;-1.79;78.67
76126;BME280;65174;48.138;21.002;2022-12-18T16:26:08;101550.56;;;-1.70;78.22
76126;BME280;65174;48.138;21.002;2022-12-18T16:29:10;101558.38;;;-1.58;77.59
76126;BME280;65174;48.138;21.002;2022-12-18T16:32:16;101559.25;;;-1.56;77.36
76126;BME280;65174;48.138;21.002;2022-12-18T16:35:19;101568.28;;;-1.69;78.49
76126;BME280;65174;48.138;21.002;2022-12-18T16:38:21;101566.44;;;-1.77;78.67
76126;BME280;65174;48.138;21.002;2022-12-18T16:41:25;101569.66;;;-1.84;79.29
76126;BME280;65174;48.138;21.002;2022-12-18T16:44:33;101567.78;;;-1.94;80.54
76126;BME280;65174;48.138;21.002;2022-12-18T16:47:37;101565.31;;;-1.91;80.97
76126;BME280;65174;48.138;21.002;2022-12-18T16:50:40;101575.19;;;-2.03;80.75
76126;BME280;65174;48.138;21.002;2022-12-18T16:53:42;101580.16;;;-2.06;81.13
76126;BME280;65174;48.138;21.002;2022-12-18T16:56:45;101579.22;;;-2.11;82.32
76126;BME280;65174;48.138;21.002;2022-12-18T16:59:51;101578.97;;;-2.22;81.44
76126;BME280;65174;48.138;21.002;2022-12-18T17:02:53;101580.63;;;-2.24;81.81
76126;BME280;65174;48.138;21.002;2022-12-18T17:06:01;101584.72;;;-2.30;82.40
76126;BME280;65174;48.138;21.002;2022-12-18T17:09:07;101582.97;;;-2.33;83.66
76126;BME280;65174;48.138;21.002;2022-12-18T17:12:10;101589.56;;;-2.39;83.06
76126;BME280;65174;48.138;21.002;2022-12-18T17:15:12;101586.94;;;-2.43;82.82
76126;BME280;65174;48.138;21.002;2022-12-18T17:18:14;101595.38;;;-2.42;82.94
76126;BME280;65174;48.138;21.002;2022-12-18T17:21:17;101604.72;;;-2.39;83.24
76126;BME280;65174;48.138;21.002;2022-12-18T17:24:19;101604.69;;;-2.41;81.90
76126;BME280;65174;48.138;21.002;2022-12-18T17:27:22;101616.50;;;-2.40;83.32
76126;BME280;65174;48.138;21.002;2022-12-18T17:30:44;101616.47;;;-2.42;83.38
76126;BME280;65174;48.138;21.002;2022-12-18T17:35:19;101631.00;;;-2.33;84.67
76126;BME280;65174;48.138;21.002;2022-12-18T17:39:55;101631.91;;;-2.29;83.94
76126;BME280;65174;48.138;21.002;2022-12-18T17:44:30;101628.41;;;-2.34;84.37
76126;BME280;65174;48.138;21.002;2022-12-18T17:49:06;101637.72;;;-2.32;84.50
76126;BME280;65174;48.138;21.002;2022-12-18T17:53:41;101642.75;;;-2.33;84.55
76126;BME280;65174;48.138;21.002;2022-12-18T17:58:17;101652.78;;;-2.36;82.59
76126;BME280;65174;48.138;21.002;2022-12-18T18:02:52;101651.09;;;-2.37;83.41
76126;BME280;65174;48.138;21.002;2022-12-18T18:07:28;101639.25;;;-2.40;83.07
76126;BME280;65174;48.138;21.002;2022-12-18T18:12:03;101633.94;;;-2.51;81.84
76126;BME280;65174;48.138;21.002;2022-12-18T18:16:41;101620.13;;;-2.65;81.49
76126;BME280;65174;48.138;21.002;2022-12-18T18:21:13;101608.66;;;-2.85;81.69
76126;BME280;65174;48.138;21.002;2022-12-18T18:25:48;101616.06;;;-2.92;80.68
76126;BME280;65174;48.138;21.002;2022-12-18T18:30:24;101618.28;;;-3.04;80.09
76126;BME280;65174;48.138;21.002;2022-12-18T18:34:59;101610.34;;;-3.18;80.75
76126;BME280;65174;48.138;21.002;2022-12-18T18:39:35;101606.09;;;-3.20;79.98
76126;BME280;65174;48.138;21.002;2022-12-18T18:44:14;101614.34;;;-3.26;79.23
76126;BME280;65174;48.138;21.002;2022-12-18T18:48:49;101617.09;;;-3.18;79.48
76126;BME280;65174;48.138;21.002;2022-12-18T18:53:24;101614.66;;;-3.14;78.00
76126;BME280;65174;48.138;21.002;2022-12-18T18:58:00;101618.72;;;-3.20;77.90
76126;BME280;65174;48.138;21.002;2022-12-18T19:02:35;101627.81;;;-3.27;77.63
76126;BME280;65174;48.138;21.002;2022-12-18T19:07:11;101625.66;;;-3.43;77.11
76126;BME280;65174;48.138;21.002;2022-12-18T19:19:29;101629.59;;;-3.23;76.36
76126;BME280;65174;48.138;21.002;2022-12-18T19:22:31;101637.06;;;-3.26;75.64
76126;BME280;65174;48.138;21.002;2022-12-18T19:25:36;101647.16;;;-3.26;74.95
76126;BME280;65174;48.138;21.002;2022-12-18T19:28:43;101651.00;;;-3.40;75.27
76126;BME280;65174;48.138;21.002;2022-12-18T19:31:45;101654.66;;;-3.29;74.60
76126;BME280;65174;48.138;21.002;2022-12-18T19:34:48;101652.59;;;-3.44;75.09
76126;BME280;65174;48.138;21.002;2022-12-18T19:37:50;101675.31;;;-3.42;74.72
76126;BME280;65174;48.138;21.002;2022-12-18T19:40:53;101669.81;;;-3.59;75.04
76126;BME280;65174;48.138;21.002;2022-12-18T19:43:55;101664.28;;;-3.75;75.55
76126;BME280;65174;48.138;21.002;2022-12-18T19:46:57;101671.31;;;-3.65;75.98
76126;BME280;65174;48.138;21.002;2022-12-18T19:49:59;101682.78;;;-3.75;75.96
76126;BME280;65174;48.138;21.002;2022-12-18T19:53:01;101676.63;;;-3.84;76.57
76126;BME280;65174;48.138;21.002;2022-12-18T19:56:08;101675.09;;;-3.79;75.24
76126;BME280;65174;48.138;21.002;2022-12-18T19:59:11;101680.75;;;-3.86;75.14
76126;BME280;65174;48.138;21.002;2022-12-18T20:02:13;101689.94;;;-3.88;74.61
76126;BME280;65174;48.138;21.002;2022-12-18T20:05:16;101676.00;;;-4.04;77.02
76126;BME280;65174;48.138;21.002;2022-12-18T20:08:18;101687.31;;;-3.91;76.00
76126;BME280;65174;48.138;21.002;2022-12-18T20:11:20;101687.84;;;-4.02;75.24
76126;BME280;65174;48.138;21.002;2022-12-18T20:14:25;101675.19;;;-4.05;76.15
76126;BME280;65174;48.138;21.002;2022-12-18T20:17:26;101676.84;;;-4.05;75.97
76126;BME280;65174;48.138;21.002;2022-12-18T20:20:30;101677.19;;;-3.93;75.71
76126;BME280;65174;48.138;21.002;2022-12-18T20:23:33;101691.41;;;-3.95;75.12
76126;BME280;65174;48.138;21.002;2022-12-18T20:26:38;101683.56;;;-4.04;75.41
76126;BME280;65174;48.138;21.002;2022-12-18T20:30:01;101693.47;;;-4.10;75.45
76126;BME280;65174;48.138;21.002;2022-12-18T20:34:36;101695.63;;;-4.22;75.97
76126;BME280;65174;48.138;21.002;2022-12-18T20:39:12;101698.28;;;-4.18;76.10
76126;BME280;65174;48.138;21.002;2022-12-18T20:43:47;101695.56;;;-4.24;75.33
76126;BME280;65174;48.138;21.002;2022-12-18T20:48:23;101723.50;;;-4.43;76.17
76126;BME280;65174;48.138;21.002;2022-12-18T20:52:58;101712.53;;;-4.45;76.79
76126;BME280;65174;48.138;21.002;2022-12-18T20:57:34;101725.78;;;-4.50;76.48
76126;BME280;65174;48.138;21.002;2022-12-18T21:01:54;101729.75;;;-4.57;76.64
76126;BME280;65174;48.138;21.002;2022-12-18T21:04:56;101730.66;;;-4.55;76.60
76126;BME280;65174;48.138;21.002;2022-12-18T21:07:58;101732.81;;;-4.65;76.83
76126;BME280;65174;48.138;21.002;2022-12-18T21:14:39;101742.63;;;-4.73;77.76
76126;BME280;65174;48.138;21.002;2022-12-18T21:17:41;101738.28;;;-4.77;77.03
76126;BME280;65174;48.138;21.002;2022-12-18T21:20:45;101729.03;;;-4.78;77.47
76126;BME280;65174;48.138;21.002;2022-12-18T21:24:08;101730.75;;;-4.77;77.48
76126;BME280;65174;48.138;21.002;2022-12-18T21:28:44;101736.28;;;-4.87;77.94
76126;BME280;65174;48.138;21.002;2022-12-18T21:33:19;101737.19;;;-4.85;77.49
76126;BME280;65174;48.138;21.002;2022-12-18T21:37:55;101729.41;;;-4.91;78.07
76126;BME280;65174;48.138;21.002;2022-12-18T21:42:30;101735.31;;;-4.91;77.92
76126;BME280;65174;48.138;21.002;2022-12-18T21:47:04;101726.78;;;-4.94;78.13
76126;BME280;65174;48.138;21.002;2022-12-18T21:51:40;101720.25;;;-4.89;77.38
76126;BME280;65174;48.138;21.002;2022-12-18T21:56:15;101720.00;;;-4.97;77.60
76126;BME280;65174;48.138;21.002;2022-12-18T22:00:51;101724.81;;;-5.03;78.49
76126;BME280;65174;48.138;21.002;2022-12-18T22:05:26;101726.50;;;-5.03;78.05
76126;BME280;65174;48.138;21.002;2022-12-18T22:10:02;101720.34;;;-5.11;80.78